CHX76 EDDG-ZZZZ
Flight info
| Callsign | CHX76 |
|---|---|
| Flight time | N/A |
| Altitude | 2000 |
| Route | VFR |
| Aircraft | EC45/L-VGD/C |
Departure
| Time | 2026-04-12 11:50 |
|---|---|
| Airport | Münster Osnabrück Airport (EDDG) |
Arrival
| Time | N/A |
|---|---|
| Airport | ZZZZ |
| Time | Latitude | Longitude | Altitude | Speed | Heading |
|---|---|---|---|---|---|
| 2026-04-12 11:48 | 52.12360 | 7.69008 | 164 ft | 0 kts | 248° |
| 2026-04-12 11:48 | 52.12360 | 7.69005 | 166 ft | 2 kts | 246° |
| 2026-04-12 11:49 | 52.12360 | 7.69004 | 170 ft | 3 kts | 166° |
| 2026-04-12 11:49 | 52.12339 | 7.69018 | 174 ft | 5 kts | 166° |
| 2026-04-12 11:49 | 52.12288 | 7.69202 | 341 ft | 37 kts | 139° |
| 2026-04-12 11:49 | 52.12075 | 7.69773 | 638 ft | 80 kts | 128° |
| 2026-04-12 11:50 | 52.11740 | 7.70684 | 871 ft | 106 kts | 123° |
| 2026-04-12 11:50 | 52.11352 | 7.71828 | 965 ft | 124 kts | 121° |
| 2026-04-12 11:50 | 52.10928 | 7.73102 | 1018 ft | 129 kts | 121° |
| 2026-04-12 11:50 | 52.10521 | 7.74387 | 1024 ft | 127 kts | 121° |
| 2026-04-12 11:51 | 52.10108 | 7.75651 | 1032 ft | 125 kts | 125° |
| 2026-04-12 11:51 | 52.09628 | 7.76827 | 1035 ft | 125 kts | 128° |
| 2026-04-12 11:51 | 52.09117 | 7.78034 | 1034 ft | 134 kts | 128° |
| 2026-04-12 11:51 | 52.08572 | 7.79295 | 1033 ft | 138 kts | 128° |
| 2026-04-12 11:52 | 52.08012 | 7.80564 | 1039 ft | 139 kts | 128° |
| 2026-04-12 11:52 | 52.07446 | 7.81846 | 936 ft | 140 kts | 128° |
| 2026-04-12 11:52 | 52.06885 | 7.83125 | 875 ft | 138 kts | 128° |
| 2026-04-12 11:52 | 52.06339 | 7.84395 | 862 ft | 139 kts | 128° |
| 2026-04-12 11:53 | 52.05784 | 7.85684 | 851 ft | 139 kts | 128° |
| 2026-04-12 11:53 | 52.05226 | 7.86969 | 845 ft | 139 kts | 128° |
| 2026-04-12 11:53 | 52.04669 | 7.88252 | 839 ft | 139 kts | 128° |
| 2026-04-12 11:53 | 52.04111 | 7.89538 | 840 ft | 139 kts | 129° |
| 2026-04-12 11:54 | 52.03555 | 7.90816 | 838 ft | 138 kts | 128° |
| 2026-04-12 11:54 | 52.02996 | 7.92089 | 840 ft | 138 kts | 128° |
| 2026-04-12 11:54 | 52.02435 | 7.93364 | 839 ft | 139 kts | 128° |
| 2026-04-12 11:54 | 52.01872 | 7.94657 | 837 ft | 141 kts | 128° |
| 2026-04-12 11:55 | 52.01307 | 7.95951 | 839 ft | 140 kts | 128° |
| 2026-04-12 11:55 | 52.00745 | 7.97245 | 840 ft | 140 kts | 128° |
| 2026-04-12 11:55 | 52.00179 | 7.98537 | 838 ft | 141 kts | 128° |
| 2026-04-12 11:55 | 51.99604 | 7.99830 | 841 ft | 141 kts | 129° |
| 2026-04-12 11:56 | 51.99038 | 8.01128 | 835 ft | 141 kts | 128° |
| 2026-04-12 11:56 | 51.98475 | 8.02417 | 842 ft | 142 kts | 128° |
| 2026-04-12 11:56 | 51.97905 | 8.03711 | 839 ft | 140 kts | 128° |
| 2026-04-12 11:56 | 51.97338 | 8.05000 | 837 ft | 141 kts | 129° |
| 2026-04-12 11:57 | 51.96773 | 8.06302 | 841 ft | 141 kts | 128° |
| 2026-04-12 11:57 | 51.96209 | 8.07588 | 839 ft | 139 kts | 130° |
| 2026-04-12 11:57 | 51.95588 | 8.08792 | 838 ft | 140 kts | 134° |
| 2026-04-12 11:57 | 51.94945 | 8.09973 | 837 ft | 140 kts | 134° |
| 2026-04-12 11:58 | 51.94306 | 8.11154 | 835 ft | 139 kts | 134° |
| 2026-04-12 11:58 | 51.93675 | 8.12341 | 840 ft | 139 kts | 133° |
| 2026-04-12 11:58 | 51.93045 | 8.13550 | 839 ft | 141 kts | 133° |
| 2026-04-12 11:58 | 51.92418 | 8.14764 | 837 ft | 140 kts | 133° |
| 2026-04-12 11:59 | 51.91790 | 8.15965 | 840 ft | 139 kts | 133° |
| 2026-04-12 11:59 | 51.91155 | 8.17154 | 841 ft | 139 kts | 133° |
| 2026-04-12 11:59 | 51.90524 | 8.18340 | 840 ft | 139 kts | 133° |
| 2026-04-12 11:59 | 51.89887 | 8.19534 | 835 ft | 140 kts | 133° |
| 2026-04-12 12:00 | 51.89247 | 8.20726 | 838 ft | 140 kts | 133° |
| 2026-04-12 12:00 | 51.88653 | 8.21845 | 871 ft | 118 kts | 133° |
| 2026-04-12 12:00 | 51.88221 | 8.22747 | 839 ft | 96 kts | 132° |
| 2026-04-12 12:00 | 51.87798 | 8.23620 | 840 ft | 99 kts | 132° |
| 2026-04-12 12:01 | 51.87369 | 8.24482 | 839 ft | 98 kts | 132° |
| 2026-04-12 12:01 | 51.87030 | 8.25152 | 848 ft | 96 kts | 132° |
| 2026-04-12 12:01 | 51.86698 | 8.25844 | 859 ft | 70 kts | 133° |
| 2026-04-12 12:01 | 51.86431 | 8.26452 | 923 ft | 66 kts | 131° |
| 2026-04-12 12:02 | 51.86157 | 8.27055 | 737 ft | 66 kts | 132° |
| 2026-04-12 12:02 | 51.85883 | 8.27656 | 657 ft | 66 kts | 132° |
| 2026-04-12 12:02 | 51.85614 | 8.28258 | 622 ft | 66 kts | 132° |
| 2026-04-12 12:02 | 51.85341 | 8.28850 | 606 ft | 65 kts | 132° |
| 2026-04-12 12:03 | 51.85062 | 8.29427 | 596 ft | 65 kts | 133° |
| 2026-04-12 12:03 | 51.84792 | 8.29984 | 597 ft | 56 kts | 133° |
| 2026-04-12 12:03 | 51.84599 | 8.30418 | 593 ft | 40 kts | 132° |
| 2026-04-12 12:03 | 51.84448 | 8.30775 | 591 ft | 39 kts | 133° |
| 2026-04-12 12:04 | 51.84299 | 8.31143 | 593 ft | 39 kts | 133° |
| 2026-04-12 12:04 | 51.84163 | 8.31504 | 591 ft | 35 kts | 130° |
| 2026-04-12 12:04 | 51.84048 | 8.31853 | 591 ft | 35 kts | 129° |
| 2026-04-12 12:04 | 51.83916 | 8.32186 | 568 ft | 35 kts | 135° |
| 2026-04-12 12:05 | 51.83752 | 8.32459 | 494 ft | 34 kts | 152° |
| 2026-04-12 12:05 | 51.83587 | 8.32728 | 470 ft | 33 kts | 149° |
| 2026-04-12 12:05 | 51.83455 | 8.32877 | 719 ft | 12 kts | 149° |
| 2026-04-12 12:05 | 51.83435 | 8.32887 | 681 ft | 1 kts | 149° |
| 2026-04-12 12:06 | 51.83397 | 8.32914 | 663 ft | 9 kts | 143° |
| 2026-04-12 12:06 | 51.83355 | 8.32980 | 570 ft | 8 kts | 141° |
| 2026-04-12 12:06 | 51.83317 | 8.33034 | 516 ft | 7 kts | 173° |
| 2026-04-12 12:06 | 51.83298 | 8.33032 | 513 ft | 4 kts | 346° |
| 2026-04-12 12:07 | 51.83262 | 8.33042 | 500 ft | 11 kts | 345° |
| 2026-04-12 12:07 | 51.83214 | 8.33064 | 396 ft | 5 kts | 349° |
| 2026-04-12 12:07 | 51.83240 | 8.33117 | 278 ft | 9 kts | 349° |
| 2026-04-12 12:07 | 51.83237 | 8.33088 | 328 ft | 5 kts | 343° |
| 2026-04-12 12:08 | 51.83253 | 8.33077 | 249 ft | 0 kts | 340° |
| 2026-04-12 12:14 | 51.83253 | 8.33076 | 249 ft | 0 kts | 340° |